sensor_id;sensor_type;location;lat;lon;timestamp;temperature;humidity
18189;DHT22;9219;50.396;8.546;2023-04-01T00:02:08;9.90;99.90
18189;DHT22;9219;50.396;8.546;2023-04-01T00:04:35;9.90;99.90
18189;DHT22;9219;50.396;8.546;2023-04-01T00:07:03;9.50;99.90
18189;DHT22;9219;50.396;8.546;2023-04-01T00:09:30;9.60;99.90
18189;DHT22;9219;50.396;8.546;2023-04-01T00:12:00;9.50;99.90
18189;DHT22;9219;50.396;8.546;2023-04-01T00:15:11;9.70;99.90
18189;DHT22;9219;50.396;8.546;2023-04-01T00:17:38;9.70;99.90
18189;DHT22;9219;50.396;8.546;2023-04-01T00:20:07;9.70;99.90
18189;DHT22;9219;50.396;8.546;2023-04-01T00:22:39;9.80;99.90
18189;DHT22;9219;50.396;8.546;2023-04-01T00:25:07;10.00;99.90
18189;DHT22;9219;50.396;8.546;2023-04-01T00:27:35;9.70;99.90
18189;DHT22;9219;50.396;8.546;2023-04-01T00:30:03;9.40;99.90
18189;DHT22;9219;50.396;8.546;2023-04-01T00:32:32;9.50;99.90
18189;DHT22;9219;50.396;8.546;2023-04-01T00:40:23;9.50;99.90
18189;DHT22;9219;50.396;8.546;2023-04-01T00:42:54;9.60;99.90
18189;DHT22;9219;50.396;8.546;2023-04-01T00:45:30;9.70;99.90
18189;DHT22;9219;50.396;8.546;2023-04-01T00:48:00;9.70;99.90
18189;DHT22;9219;50.396;8.546;2023-04-01T00:50:31;9.70;99.90
18189;DHT22;9219;50.396;8.546;2023-04-01T00:53:00;9.90;99.90
18189;DHT22;9219;50.396;8.546;2023-04-01T00:58:22;9.60;99.90
18189;DHT22;9219;50.396;8.546;2023-04-01T01:00:52;9.80;99.90
18189;DHT22;9219;50.396;8.546;2023-04-01T01:03:22;9.90;99.90
18189;DHT22;9219;50.396;8.546;2023-04-01T01:06:06;9.80;99.90
18189;DHT22;9219;50.396;8.546;2023-04-01T01:08:44;9.90;99.90
18189;DHT22;9219;50.396;8.546;2023-04-01T01:11:17;10.10;99.90
18189;DHT22;9219;50.396;8.546;2023-04-01T01:16:36;9.80;99.90
18189;DHT22;9219;50.396;8.546;2023-04-01T01:19:11;9.60;99.90
18189;DHT22;9219;50.396;8.546;2023-04-01T01:21:55;9.80;99.90
18189;DHT22;9219;50.396;8.546;2023-04-01T01:24:35;9.40;99.90
18189;DHT22;9219;50.396;8.546;2023-04-01T01:27:10;9.60;99.90
18189;DHT22;9219;50.396;8.546;2023-04-01T01:30:06;9.50;99.90
18189;DHT22;9219;50.396;8.546;2023-04-01T01:37:16;9.40;99.90
18189;DHT22;9219;50.396;8.546;2023-04-01T01:39:48;9.40;99.90
18189;DHT22;9219;50.396;8.546;2023-04-01T01:42:18;9.30;99.90
18189;DHT22;9219;50.396;8.546;2023-04-01T01:44:49;9.20;99.90
18189;DHT22;9219;50.396;8.546;2023-04-01T01:47:19;9.40;99.90
18189;DHT22;9219;50.396;8.546;2023-04-01T01:49:49;9.30;99.90
18189;DHT22;9219;50.396;8.546;2023-04-01T01:52:19;9.10;99.90
18189;DHT22;9219;50.396;8.546;2023-04-01T01:57:48;9.30;99.90
18189;DHT22;9219;50.396;8.546;2023-04-01T02:00:16;9.50;99.90
18189;DHT22;9219;50.396;8.546;2023-04-01T02:02:48;9.50;99.90
18189;DHT22;9219;50.396;8.546;2023-04-01T02:05:19;9.30;99.90
18189;DHT22;9219;50.396;8.546;2023-04-01T02:07:51;9.40;99.90
18189;DHT22;9219;50.396;8.546;2023-04-01T02:10:22;9.10;99.90
18189;DHT22;9219;50.396;8.546;2023-04-01T02:12:56;9.20;99.90
18189;DHT22;9219;50.396;8.546;2023-04-01T02:15:27;9.30;99.90
18189;DHT22;9219;50.396;8.546;2023-04-01T02:18:24;9.30;99.90
18189;DHT22;9219;50.396;8.546;2023-04-01T02:20:52;9.30;99.90
18189;DHT22;9219;50.396;8.546;2023-04-01T02:23:20;9.40;99.90
18189;DHT22;9219;50.396;8.546;2023-04-01T02:25:47;9.20;99.90
18189;DHT22;9219;50.396;8.546;2023-04-01T02:28:17;9.30;99.90
18189;DHT22;9219;50.396;8.546;2023-04-01T02:30:48;9.40;99.90
18189;DHT22;9219;50.396;8.546;2023-04-01T02:33:17;9.40;99.90
18189;DHT22;9219;50.396;8.546;2023-04-01T02:38:27;9.40;99.90
18189;DHT22;9219;50.396;8.546;2023-04-01T02:41:07;9.10;99.90
18189;DHT22;9219;50.396;8.546;2023-04-01T02:43:38;9.50;99.90
18189;DHT22;9219;50.396;8.546;2023-04-01T02:46:06;9.40;99.90
18189;DHT22;9219;50.396;8.546;2023-04-01T02:48:36;9.50;99.90
18189;DHT22;9219;50.396;8.546;2023-04-01T02:51:03;9.30;99.90
18189;DHT22;9219;50.396;8.546;2023-04-01T02:53:35;9.20;99.90
18189;DHT22;9219;50.396;8.546;2023-04-01T02:56:05;9.40;99.90
18189;DHT22;9219;50.396;8.546;2023-04-01T03:03:35;9.70;99.90
18189;DHT22;9219;50.396;8.546;2023-04-01T03:06:05;9.40;99.90
18189;DHT22;9219;50.396;8.546;2023-04-01T03:08:33;9.50;99.90
18189;DHT22;9219;50.396;8.546;2023-04-01T03:11:02;9.70;99.90
18189;DHT22;9219;50.396;8.546;2023-04-01T03:13:34;9.50;99.90
18189;DHT22;9219;50.396;8.546;2023-04-01T03:16:02;9.50;99.90
18189;DHT22;9219;50.396;8.546;2023-04-01T03:18:44;9.40;99.90
18189;DHT22;9219;50.396;8.546;2023-04-01T03:25:19;9.20;99.90
18189;DHT22;9219;50.396;8.546;2023-04-01T03:27:54;9.10;99.90
18189;DHT22;9219;50.396;8.546;2023-04-01T03:30:21;9.20;99.90
18189;DHT22;9219;50.396;8.546;2023-04-01T03:32:52;9.30;99.90
18189;DHT22;9219;50.396;8.546;2023-04-01T03:35:19;9.30;99.90
18189;DHT22;9219;50.396;8.546;2023-04-01T03:37:51;9.30;99.90
18189;DHT22;9219;50.396;8.546;2023-04-01T03:40:25;9.40;99.90
18189;DHT22;9219;50.396;8.546;2023-04-01T03:47:57;9.60;99.90
18189;DHT22;9219;50.396;8.546;2023-04-01T03:50:25;9.70;99.90
18189;DHT22;9219;50.396;8.546;2023-04-01T03:52:53;9.50;99.90
18189;DHT22;9219;50.396;8.546;2023-04-01T03:55:21;9.10;99.90
18189;DHT22;9219;50.396;8.546;2023-04-01T03:57:48;9.20;99.90
18189;DHT22;9219;50.396;8.546;2023-04-01T04:00:17;9.30;99.90
18189;DHT22;9219;50.396;8.546;2023-04-01T04:02:45;9.30;99.90
18189;DHT22;9219;50.396;8.546;2023-04-01T04:05:13;9.10;99.90
18189;DHT22;9219;50.396;8.546;2023-04-01T04:12:46;9.00;99.90
18189;DHT22;9219;50.396;8.546;2023-04-01T04:15:16;9.30;99.90
18189;DHT22;9219;50.396;8.546;2023-04-01T04:17:44;8.80;99.90
18189;DHT22;9219;50.396;8.546;2023-04-01T04:20:12;8.90;99.90
18189;DHT22;9219;50.396;8.546;2023-04-01T04:22:39;8.90;99.90
18189;DHT22;9219;50.396;8.546;2023-04-01T04:25:07;8.80;99.90
18189;DHT22;9219;50.396;8.546;2023-04-01T04:27:35;8.60;99.90
18189;DHT22;9219;50.396;8.546;2023-04-01T04:30:06;8.70;99.90
18189;DHT22;9219;50.396;8.546;2023-04-01T04:38:07;8.80;99.90
18189;DHT22;9219;50.396;8.546;2023-04-01T04:40:36;8.90;99.90
18189;DHT22;9219;50.396;8.546;2023-04-01T04:43:03;8.90;99.90
18189;DHT22;9219;50.396;8.546;2023-04-01T04:45:31;8.80;99.90
18189;DHT22;9219;50.396;8.546;2023-04-01T04:47:59;9.00;99.90
18189;DHT22;9219;50.396;8.546;2023-04-01T04:50:27;9.00;99.90
18189;DHT22;9219;50.396;8.546;2023-04-01T04:52:57;9.10;99.90
18189;DHT22;9219;50.396;8.546;2023-04-01T04:55:26;8.90;99.90
18189;DHT22;9219;50.396;8.546;2023-04-01T05:03:00;8.70;99.90
18189;DHT22;9219;50.396;8.546;2023-04-01T05:05:28;8.90;99.90
18189;DHT22;9219;50.396;8.546;2023-04-01T05:07:56;8.90;99.90
18189;DHT22;9219;50.396;8.546;2023-04-01T05:10:24;9.00;99.90
18189;DHT22;9219;50.396;8.546;2023-04-01T05:12:51;9.00;99.90
18189;DHT22;9219;50.396;8.546;2023-04-01T05:15:19;9.00;99.90
18189;DHT22;9219;50.396;8.546;2023-04-01T05:17:47;9.00;99.90
18189;DHT22;9219;50.396;8.546;2023-04-01T05:25:17;8.90;99.90
18189;DHT22;9219;50.396;8.546;2023-04-01T05:27:48;9.00;99.90
18189;DHT22;9219;50.396;8.546;2023-04-01T05:30:15;9.00;99.90
18189;DHT22;9219;50.396;8.546;2023-04-01T05:32:42;9.10;99.90
18189;DHT22;9219;50.396;8.546;2023-04-01T05:35:14;8.90;99.90
18189;DHT22;9219;50.396;8.546;2023-04-01T05:37:41;8.60;99.90
18189;DHT22;9219;50.396;8.546;2023-04-01T05:40:10;8.70;99.90
18189;DHT22;9219;50.396;8.546;2023-04-01T05:47:14;9.00;99.90
18189;DHT22;9219;50.396;8.546;2023-04-01T05:49:43;9.20;99.90
18189;DHT22;9219;50.396;8.546;2023-04-01T05:52:11;9.30;99.90
18189;DHT22;9219;50.396;8.546;2023-04-01T05:54:39;9.00;99.90
18189;DHT22;9219;50.396;8.546;2023-04-01T05:57:07;9.10;99.90
18189;DHT22;9219;50.396;8.546;2023-04-01T05:59:34;9.30;99.90
18189;DHT22;9219;50.396;8.546;2023-04-01T06:02:02;9.10;99.90
18189;DHT22;9219;50.396;8.546;2023-04-01T06:09:39;9.00;99.90
18189;DHT22;9219;50.396;8.546;2023-04-01T06:12:36;9.10;99.90
18189;DHT22;9219;50.396;8.546;2023-04-01T06:15:20;8.90;99.90
18189;DHT22;9219;50.396;8.546;2023-04-01T06:18:03;8.90;99.90
18189;DHT22;9219;50.396;8.546;2023-04-01T06:20:40;9.00;99.90
18189;DHT22;9219;50.396;8.546;2023-04-01T06:23:23;9.00;99.90
18189;DHT22;9219;50.396;8.546;2023-04-01T06:26:04;9.00;99.90
18189;DHT22;9219;50.396;8.546;2023-04-01T06:33:32;9.00;99.90
18189;DHT22;9219;50.396;8.546;2023-04-01T06:36:15;9.50;99.90
18189;DHT22;9219;50.396;8.546;2023-04-01T06:39:05;9.60;99.90
18189;DHT22;9219;50.396;8.546;2023-04-01T06:42:01;9.70;99.90
18189;DHT22;9219;50.396;8.546;2023-04-01T06:44:38;9.50;99.90
18189;DHT22;9219;50.396;8.546;2023-04-01T06:47:23;9.30;99.90
18189;DHT22;9219;50.396;8.546;2023-04-01T06:49:57;9.40;99.90
18189;DHT22;9219;50.396;8.546;2023-04-01T06:58:05;9.20;99.90
18189;DHT22;9219;50.396;8.546;2023-04-01T07:00:36;9.30;99.90
18189;DHT22;9219;50.396;8.546;2023-04-01T07:03:15;9.40;99.90
18189;DHT22;9219;50.396;8.546;2023-04-01T07:05:44;9.30;99.90
18189;DHT22;9219;50.396;8.546;2023-04-01T07:08:16;8.90;99.90
18189;DHT22;9219;50.396;8.546;2023-04-01T07:13:36;9.20;99.90
18189;DHT22;9219;50.396;8.546;2023-04-01T07:16:10;9.30;99.90
18189;DHT22;9219;50.396;8.546;2023-04-01T07:18:41;9.20;99.90
18189;DHT22;9219;50.396;8.546;2023-04-01T07:21:19;9.00;99.90
18189;DHT22;9219;50.396;8.546;2023-04-01T07:23:47;9.00;99.90
18189;DHT22;9219;50.396;8.546;2023-04-01T07:26:20;9.20;99.90
18189;DHT22;9219;50.396;8.546;2023-04-01T07:28:51;9.40;99.90
18189;DHT22;9219;50.396;8.546;2023-04-01T07:32:05;9.40;99.90
18189;DHT22;9219;50.396;8.546;2023-04-01T07:34:40;9.40;99.90
18189;DHT22;9219;50.396;8.546;2023-04-01T07:37:13;9.20;99.90
18189;DHT22;9219;50.396;8.546;2023-04-01T07:39:48;9.00;99.90
18189;DHT22;9219;50.396;8.546;2023-04-01T07:42:26;9.10;99.90
18189;DHT22;9219;50.396;8.546;2023-04-01T07:45:05;9.20;99.90
18189;DHT22;9219;50.396;8.546;2023-04-01T07:47:50;9.20;99.90
18189;DHT22;9219;50.396;8.546;2023-04-01T07:54:38;9.60;99.90
18189;DHT22;9219;50.396;8.546;2023-04-01T07:57:14;9.60;99.90
18189;DHT22;9219;50.396;8.546;2023-04-01T07:59:50;9.80;99.90
18189;DHT22;9219;50.396;8.546;2023-04-01T08:02:32;10.00;99.90
18189;DHT22;9219;50.396;8.546;2023-04-01T08:05:13;10.00;99.90
18189;DHT22;9219;50.396;8.546;2023-04-01T08:07:50;10.10;99.90
18189;DHT22;9219;50.396;8.546;2023-04-01T08:15:23;10.20;99.90
18189;DHT22;9219;50.396;8.546;2023-04-01T08:18:03;9.80;99.90
18189;DHT22;9219;50.396;8.546;2023-04-01T08:20:37;9.80;99.90
18189;DHT22;9219;50.396;8.546;2023-04-01T08:23:11;10.00;99.90
18189;DHT22;9219;50.396;8.546;2023-04-01T08:25:46;10.20;99.90
18189;DHT22;9219;50.396;8.546;2023-04-01T08:28:19;10.20;99.90
18189;DHT22;9219;50.396;8.546;2023-04-01T08:33:31;10.30;99.90
18189;DHT22;9219;50.396;8.546;2023-04-01T08:36:03;10.00;99.90
18189;DHT22;9219;50.396;8.546;2023-04-01T08:38:37;10.00;99.90
18189;DHT22;9219;50.396;8.546;2023-04-01T08:44:23;10.30;99.90
18189;DHT22;9219;50.396;8.546;2023-04-01T08:47:14;10.50;99.90
18189;DHT22;9219;50.396;8.546;2023-04-01T08:50:01;10.40;99.90
18189;DHT22;9219;50.396;8.546;2023-04-01T08:55:51;10.40;99.90
18189;DHT22;9219;50.396;8.546;2023-04-01T08:58:54;10.50;99.90
18189;DHT22;9219;50.396;8.546;2023-04-01T09:01:33;10.60;99.90
18189;DHT22;9219;50.396;8.546;2023-04-01T09:04:16;10.60;99.90
18189;DHT22;9219;50.396;8.546;2023-04-01T09:06:55;10.60;99.90
18189;DHT22;9219;50.396;8.546;2023-04-01T09:15:47;10.60;99.90
18189;DHT22;9219;50.396;8.546;2023-04-01T09:18:45;10.50;99.90
18189;DHT22;9219;50.396;8.546;2023-04-01T09:21:44;10.70;99.90
18189;DHT22;9219;50.396;8.546;2023-04-01T09:24:43;10.80;99.90
18189;DHT22;9219;50.396;8.546;2023-04-01T09:27:25;10.80;99.90
18189;DHT22;9219;50.396;8.546;2023-04-01T09:30:32;11.00;99.90
18189;DHT22;9219;50.396;8.546;2023-04-01T09:38:28;11.10;99.90
18189;DHT22;9219;50.396;8.546;2023-04-01T09:40:58;11.10;99.90
18189;DHT22;9219;50.396;8.546;2023-04-01T09:43:51;11.10;99.90
18189;DHT22;9219;50.396;8.546;2023-04-01T09:46:39;11.20;99.90
18189;DHT22;9219;50.396;8.546;2023-04-01T09:49:43;11.40;99.90
18189;DHT22;9219;50.396;8.546;2023-04-01T09:52:38;11.30;99.90
18189;DHT22;9219;50.396;8.546;2023-04-01T09:55:42;11.20;99.90
18189;DHT22;9219;50.396;8.546;2023-04-01T10:02:53;11.00;99.90
18189;DHT22;9219;50.396;8.546;2023-04-01T10:06:02;11.10;99.90
18189;DHT22;9219;50.396;8.546;2023-04-01T10:09:05;11.20;99.90
18189;DHT22;9219;50.396;8.546;2023-04-01T10:21:32;11.40;99.90
18189;DHT22;9219;50.396;8.546;2023-04-01T10:24:30;11.30;99.90
18189;DHT22;9219;50.396;8.546;2023-04-01T10:30:23;11.40;99.90
18189;DHT22;9219;50.396;8.546;2023-04-01T10:36:41;11.20;99.90
18189;DHT22;9219;50.396;8.546;2023-04-01T10:44:35;11.00;99.90
18189;DHT22;9219;50.396;8.546;2023-04-01T10:47:48;11.30;99.90
18189;DHT22;9219;50.396;8.546;2023-04-01T10:50:36;11.30;99.90
18189;DHT22;9219;50.396;8.546;2023-04-01T10:53:26;11.30;99.90
18189;DHT22;9219;50.396;8.546;2023-04-01T11:05:49;11.30;99.90
18189;DHT22;9219;50.396;8.546;2023-04-01T11:31:38;11.40;99.90
18189;DHT22;9219;50.396;8.546;2023-04-01T11:34:18;11.40;99.90
18189;DHT22;9219;50.396;8.546;2023-04-01T11:37:00;11.30;99.90
18189;DHT22;9219;50.396;8.546;2023-04-01T11:39:42;11.40;99.90
18189;DHT22;9219;50.396;8.546;2023-04-01T11:42:20;11.20;99.90
18189;DHT22;9219;50.396;8.546;2023-04-01T11:50:14;11.00;99.90
18189;DHT22;9219;50.396;8.546;2023-04-01T11:53:00;11.20;99.90
18189;DHT22;9219;50.396;8.546;2023-04-01T11:55:42;11.30;99.90
18189;DHT22;9219;50.396;8.546;2023-04-01T11:58:47;11.40;99.90
18189;DHT22;9219;50.396;8.546;2023-04-01T12:01:27;11.40;99.90
18189;DHT22;9219;50.396;8.546;2023-04-01T12:12:14;11.50;99.90
18189;DHT22;9219;50.396;8.546;2023-04-01T12:14:57;11.40;99.90
18189;DHT22;9219;50.396;8.546;2023-04-01T12:17:38;11.40;99.90
18189;DHT22;9219;50.396;8.546;2023-04-01T12:20:26;11.40;99.90
18189;DHT22;9219;50.396;8.546;2023-04-01T12:23:11;11.00;99.90
18189;DHT22;9219;50.396;8.546;2023-04-01T12:26:18;11.10;99.90
18189;DHT22;9219;50.396;8.546;2023-04-01T12:34:36;11.30;99.90
18189;DHT22;9219;50.396;8.546;2023-04-01T12:37:18;11.10;99.90
18189;DHT22;9219;50.396;8.546;2023-04-01T12:40:00;10.90;99.90
18189;DHT22;9219;50.396;8.546;2023-04-01T12:42:42;10.80;99.90
18189;DHT22;9219;50.396;8.546;2023-04-01T12:45:27;11.10;99.90
18189;DHT22;9219;50.396;8.546;2023-04-01T12:48:21;10.90;99.90
18189;DHT22;9219;50.396;8.546;2023-04-01T12:56:12;11.00;99.90
18189;DHT22;9219;50.396;8.546;2023-04-01T12:59:05;11.10;99.90
18189;DHT22;9219;50.396;8.546;2023-04-01T13:02:00;11.00;99.90
18189;DHT22;9219;50.396;8.546;2023-04-01T13:04:54;10.90;99.90
18189;DHT22;9219;50.396;8.546;2023-04-01T13:10:50;10.80;99.90
18189;DHT22;9219;50.396;8.546;2023-04-01T13:18:14;11.30;99.90
18189;DHT22;9219;50.396;8.546;2023-04-01T13:20:54;11.50;99.90
18189;DHT22;9219;50.396;8.546;2023-04-01T13:23:48;11.60;99.90
18189;DHT22;9219;50.396;8.546;2023-04-01T13:26:27;11.90;99.90
18189;DHT22;9219;50.396;8.546;2023-04-01T13:29:02;12.10;99.90
18189;DHT22;9219;50.396;8.546;2023-04-01T13:31:43;11.90;99.90
18189;DHT22;9219;50.396;8.546;2023-04-01T13:40:01;11.90;99.90
18189;DHT22;9219;50.396;8.546;2023-04-01T13:42:36;11.90;99.90
18189;DHT22;9219;50.396;8.546;2023-04-01T13:45:19;11.90;99.90
18189;DHT22;9219;50.396;8.546;2023-04-01T13:48:21;11.30;99.90
18189;DHT22;9219;50.396;8.546;2023-04-01T13:51:06;11.10;99.90
18189;DHT22;9219;50.396;8.546;2023-04-01T13:54:03;11.50;99.90
18189;DHT22;9219;50.396;8.546;2023-04-01T14:01:47;11.20;99.90
18189;DHT22;9219;50.396;8.546;2023-04-01T14:04:49;10.90;99.90
18189;DHT22;9219;50.396;8.546;2023-04-01T14:07:47;11.00;99.90
18189;DHT22;9219;50.396;8.546;2023-04-01T14:10:22;11.30;99.90
18189;DHT22;9219;50.396;8.546;2023-04-01T14:13:00;11.20;99.90
18189;DHT22;9219;50.396;8.546;2023-04-01T14:15:50;11.00;99.90
18189;DHT22;9219;50.396;8.546;2023-04-01T14:23:31;11.10;99.90
18189;DHT22;9219;50.396;8.546;2023-04-01T14:29:37;11.00;99.90
18189;DHT22;9219;50.396;8.546;2023-04-01T14:32:25;10.90;99.90
18189;DHT22;9219;50.396;8.546;2023-04-01T14:35:31;11.10;99.90
18189;DHT22;9219;50.396;8.546;2023-04-01T14:38:39;11.40;99.90
18189;DHT22;9219;50.396;8.546;2023-04-01T14:48:38;11.60;99.90
18189;DHT22;9219;50.396;8.546;2023-04-01T14:51:22;11.90;99.90
18189;DHT22;9219;50.396;8.546;2023-04-01T14:54:03;11.90;99.90
18189;DHT22;9219;50.396;8.546;2023-04-01T14:56:36;11.80;99.90
18189;DHT22;9219;50.396;8.546;2023-04-01T14:59:14;11.60;99.90
18189;DHT22;9219;50.396;8.546;2023-04-01T15:09:20;11.60;99.90
18189;DHT22;9219;50.396;8.546;2023-04-01T15:12:01;11.80;99.90
18189;DHT22;9219;50.396;8.546;2023-04-01T15:15:09;11.30;99.90
18189;DHT22;9219;50.396;8.546;2023-04-01T15:17:50;10.60;99.90
18189;DHT22;9219;50.396;8.546;2023-04-01T15:28:23;10.20;99.90
18189;DHT22;9219;50.396;8.546;2023-04-01T15:31:01;9.70;99.90
18189;DHT22;9219;50.396;8.546;2023-04-01T15:33:50;10.00;99.90
18189;DHT22;9219;50.396;8.546;2023-04-01T15:36:33;10.20;99.90
18189;DHT22;9219;50.396;8.546;2023-04-01T15:39:16;9.90;99.90
18189;DHT22;9219;50.396;8.546;2023-04-01T15:42:02;9.70;99.90
18189;DHT22;9219;50.396;8.546;2023-04-01T15:50:32;9.70;99.90
18189;DHT22;9219;50.396;8.546;2023-04-01T15:53:13;9.50;99.90
18189;DHT22;9219;50.396;8.546;2023-04-01T15:55:55;9.30;99.90
18189;DHT22;9219;50.396;8.546;2023-04-01T15:58:41;9.10;99.90
18189;DHT22;9219;50.396;8.546;2023-04-01T16:01:24;9.10;99.90
18189;DHT22;9219;50.396;8.546;2023-04-01T16:03:58;9.30;99.90
18189;DHT22;9219;50.396;8.546;2023-04-01T16:09:46;9.40;99.90
18189;DHT22;9219;50.396;8.546;2023-04-01T16:12:30;9.70;99.90
18189;DHT22;9219;50.396;8.546;2023-04-01T16:15:12;9.60;99.90
18189;DHT22;9219;50.396;8.546;2023-04-01T16:20:51;9.50;99.90
18189;DHT22;9219;50.396;8.546;2023-04-01T16:23:26;9.50;99.90
18189;DHT22;9219;50.396;8.546;2023-04-01T16:31:31;9.50;99.90
18189;DHT22;9219;50.396;8.546;2023-04-01T16:34:10;9.70;99.90
18189;DHT22;9219;50.396;8.546;2023-04-01T16:36:50;9.60;99.90
18189;DHT22;9219;50.396;8.546;2023-04-01T16:39:30;9.60;99.90
18189;DHT22;9219;50.396;8.546;2023-04-01T16:42:17;9.90;99.90
18189;DHT22;9219;50.396;8.546;2023-04-01T16:44:52;10.00;99.90
18189;DHT22;9219;50.396;8.546;2023-04-01T16:47:41;10.10;99.90
18189;DHT22;9219;50.396;8.546;2023-04-01T16:50:46;10.20;99.90
18189;DHT22;9219;50.396;8.546;2023-04-01T16:53:21;10.10;99.90
18189;DHT22;9219;50.396;8.546;2023-04-01T16:55:57;10.20;99.90
18189;DHT22;9219;50.396;8.546;2023-04-01T16:58:39;10.20;99.90
18189;DHT22;9219;50.396;8.546;2023-04-01T17:01:14;9.90;99.90
18189;DHT22;9219;50.396;8.546;2023-04-01T17:03:52;9.80;99.90
18189;DHT22;9219;50.396;8.546;2023-04-01T17:06:30;9.90;99.90
18189;DHT22;9219;50.396;8.546;2023-04-01T17:11:49;10.00;99.90
18189;DHT22;9219;50.396;8.546;2023-04-01T17:14:29;9.80;99.90
18189;DHT22;9219;50.396;8.546;2023-04-01T17:17:19;9.70;99.90
18189;DHT22;9219;50.396;8.546;2023-04-01T17:22:54;9.50;99.90
18189;DHT22;9219;50.396;8.546;2023-04-01T17:25:49;9.40;99.90
18189;DHT22;9219;50.396;8.546;2023-04-01T17:36:01;9.60;99.90
18189;DHT22;9219;50.396;8.546;2023-04-01T17:38:56;9.50;99.90
18189;DHT22;9219;50.396;8.546;2023-04-01T17:41:32;9.70;99.90
18189;DHT22;9219;50.396;8.546;2023-04-01T17:44:16;9.70;99.90
18189;DHT22;9219;50.396;8.546;2023-04-01T17:47:03;9.60;99.90
18189;DHT22;9219;50.396;8.546;2023-04-01T17:54:50;9.50;99.90
18189;DHT22;9219;50.396;8.546;2023-04-01T17:57:34;9.40;99.90
18189;DHT22;9219;50.396;8.546;2023-04-01T18:00:19;9.40;99.90
18189;DHT22;9219;50.396;8.546;2023-04-01T18:03:05;9.40;99.90
18189;DHT22;9219;50.396;8.546;2023-04-01T18:05:57;9.40;99.90
18189;DHT22;9219;50.396;8.546;2023-04-01T18:08:44;9.30;99.90
18189;DHT22;9219;50.396;8.546;2023-04-01T18:14:30;9.20;99.90
18189;DHT22;9219;50.396;8.546;2023-04-01T18:17:17;9.30;99.90
18189;DHT22;9219;50.396;8.546;2023-04-01T18:20:07;9.40;99.90
18189;DHT22;9219;50.396;8.546;2023-04-01T18:22:44;9.50;99.90
18189;DHT22;9219;50.396;8.546;2023-04-01T18:25:34;9.60;99.90
18189;DHT22;9219;50.396;8.546;2023-04-01T18:28:30;9.30;99.90
18189;DHT22;9219;50.396;8.546;2023-04-01T18:36:18;9.20;99.90
18189;DHT22;9219;50.396;8.546;2023-04-01T18:38:52;9.30;99.90
18189;DHT22;9219;50.396;8.546;2023-04-01T18:41:32;9.20;99.90
18189;DHT22;9219;50.396;8.546;2023-04-01T18:44:26;9.00;99.90
18189;DHT22;9219;50.396;8.546;2023-04-01T18:47:03;9.00;99.90
18189;DHT22;9219;50.396;8.546;2023-04-01T18:49:43;8.90;99.90
18189;DHT22;9219;50.396;8.546;2023-04-01T18:52:19;8.90;99.90
18189;DHT22;9219;50.396;8.546;2023-04-01T19:00:17;8.90;99.90
18189;DHT22;9219;50.396;8.546;2023-04-01T19:02:52;9.00;99.90
18189;DHT22;9219;50.396;8.546;2023-04-01T19:05:31;9.10;99.90
18189;DHT22;9219;50.396;8.546;2023-04-01T19:08:18;9.10;99.90
18189;DHT22;9219;50.396;8.546;2023-04-01T19:10:59;9.20;99.90
18189;DHT22;9219;50.396;8.546;2023-04-01T19:13:36;9.20;99.90
18189;DHT22;9219;50.396;8.546;2023-04-01T19:22:13;9.30;99.90
18189;DHT22;9219;50.396;8.546;2023-04-01T19:25:00;9.00;99.90
18189;DHT22;9219;50.396;8.546;2023-04-01T19:27:39;8.80;99.90
18189;DHT22;9219;50.396;8.546;2023-04-01T19:30:27;8.90;99.90
18189;DHT22;9219;50.396;8.546;2023-04-01T19:33:25;9.10;99.90
18189;DHT22;9219;50.396;8.546;2023-04-01T19:36:03;9.30;99.90
18189;DHT22;9219;50.396;8.546;2023-04-01T19:43:58;9.30;99.90
18189;DHT22;9219;50.396;8.546;2023-04-01T19:46:34;9.10;99.90
18189;DHT22;9219;50.396;8.546;2023-04-01T19:49:19;9.00;99.90
18189;DHT22;9219;50.396;8.546;2023-04-01T19:52:00;8.90;99.90
18189;DHT22;9219;50.396;8.546;2023-04-01T19:54:40;9.10;99.90
18189;DHT22;9219;50.396;8.546;2023-04-01T19:57:26;9.30;99.90
18189;DHT22;9219;50.396;8.546;2023-04-01T20:00:04;9.30;99.90
18189;DHT22;9219;50.396;8.546;2023-04-01T20:07:44;9.00;99.90
18189;DHT22;9219;50.396;8.546;2023-04-01T20:10:25;9.00;99.90
18189;DHT22;9219;50.396;8.546;2023-04-01T20:13:06;9.10;99.90
18189;DHT22;9219;50.396;8.546;2023-04-01T20:15:41;9.00;99.90
18189;DHT22;9219;50.396;8.546;2023-04-01T20:18:14;9.10;99.90
18189;DHT22;9219;50.396;8.546;2023-04-01T20:20:55;8.90;99.90
18189;DHT22;9219;50.396;8.546;2023-04-01T20:23:39;9.00;99.90
18189;DHT22;9219;50.396;8.546;2023-04-01T20:26:12;8.90;99.90
18189;DHT22;9219;50.396;8.546;2023-04-01T20:34:08;8.60;99.90
18189;DHT22;9219;50.396;8.546;2023-04-01T20:36:51;8.80;99.90
18189;DHT22;9219;50.396;8.546;2023-04-01T20:39:44;8.90;99.90
18189;DHT22;9219;50.396;8.546;2023-04-01T20:42:28;8.90;99.90
18189;DHT22;9219;50.396;8.546;2023-04-01T20:45:10;9.00;99.90
18189;DHT22;9219;50.396;8.546;2023-04-01T20:47:51;9.20;99.90
18189;DHT22;9219;50.396;8.546;2023-04-01T20:50:29;9.00;99.90
18189;DHT22;9219;50.396;8.546;2023-04-01T20:58:12;8.80;99.90
18189;DHT22;9219;50.396;8.546;2023-04-01T21:00:57;8.60;99.90
18189;DHT22;9219;50.396;8.546;2023-04-01T21:03:40;8.60;99.90
18189;DHT22;9219;50.396;8.546;2023-04-01T21:12:09;8.70;99.90
18189;DHT22;9219;50.396;8.546;2023-04-01T21:15:12;8.70;99.90
18189;DHT22;9219;50.396;8.546;2023-04-01T21:23:15;8.60;99.90
18189;DHT22;9219;50.396;8.546;2023-04-01T21:25:58;8.70;99.90
18189;DHT22;9219;50.396;8.546;2023-04-01T21:28:39;8.50;99.90
18189;DHT22;9219;50.396;8.546;2023-04-01T21:31:19;8.50;99.90
18189;DHT22;9219;50.396;8.546;2023-04-01T21:34:05;8.40;99.90
18189;DHT22;9219;50.396;8.546;2023-04-01T21:36:51;8.40;99.90
18189;DHT22;9219;50.396;8.546;2023-04-01T21:39:48;8.40;99.90
18189;DHT22;9219;50.396;8.546;2023-04-01T21:50:47;8.30;99.90
18189;DHT22;9219;50.396;8.546;2023-04-01T21:57:01;8.10;99.90
18189;DHT22;9219;50.396;8.546;2023-04-01T21:59:56;8.20;99.90
18189;DHT22;9219;50.396;8.546;2023-04-01T22:06:08;8.40;99.90
18189;DHT22;9219;50.396;8.546;2023-04-01T22:08:48;8.50;99.90
18189;DHT22;9219;50.396;8.546;2023-04-01T22:11:29;8.30;99.90
18189;DHT22;9219;50.396;8.546;2023-04-01T22:14:05;8.40;99.90
18189;DHT22;9219;50.396;8.546;2023-04-01T22:16:42;8.20;99.90
18189;DHT22;9219;50.396;8.546;2023-04-01T22:19:17;8.20;99.90
18189;DHT22;9219;50.396;8.546;2023-04-01T22:24:36;8.30;99.90
18189;DHT22;9219;50.396;8.546;2023-04-01T22:27:10;8.50;99.90
18189;DHT22;9219;50.396;8.546;2023-04-01T22:29:49;8.30;99.90
18189;DHT22;9219;50.396;8.546;2023-04-01T22:32:23;8.30;99.90
18189;DHT22;9219;50.396;8.546;2023-04-01T22:34:57;8.40;99.90
18189;DHT22;9219;50.396;8.546;2023-04-01T22:37:35;8.60;99.90
18189;DHT22;9219;50.396;8.546;2023-04-01T22:40:21;8.60;99.90
18189;DHT22;9219;50.396;8.546;2023-04-01T22:42:54;8.60;99.90
18189;DHT22;9219;50.396;8.546;2023-04-01T22:50:50;8.80;99.90
18189;DHT22;9219;50.396;8.546;2023-04-01T22:53:32;8.70;99.90
18189;DHT22;9219;50.396;8.546;2023-04-01T22:56:07;8.90;99.90
18189;DHT22;9219;50.396;8.546;2023-04-01T22:58:40;8.70;99.90
18189;DHT22;9219;50.396;8.546;2023-04-01T23:01:13;8.80;99.90
18189;DHT22;9219;50.396;8.546;2023-04-01T23:03:44;8.50;99.90
18189;DHT22;9219;50.396;8.546;2023-04-01T23:06:19;8.40;99.90